sensor_id;sensor_type;location;lat;lon;timestamp;P1;durP1;ratioP1;P2;durP2;ratioP2
7511;SDS011;9999;48.780;9.146;2022-12-07T00:01:20;3.47;;;2.73;;
7511;SDS011;9999;48.780;9.146;2022-12-07T00:03:49;3.50;;;2.47;;
7511;SDS011;9999;48.780;9.146;2022-12-07T00:06:20;5.90;;;2.93;;
7511;SDS011;9999;48.780;9.146;2022-12-07T00:08:47;3.67;;;2.63;;
7511;SDS011;9999;48.780;9.146;2022-12-07T00:11:15;5.23;;;3.20;;
7511;SDS011;9999;48.780;9.146;2022-12-07T00:13:43;4.77;;;2.60;;
7511;SDS011;9999;48.780;9.146;2022-12-07T00:16:12;3.30;;;3.00;;
7511;SDS011;9999;48.780;9.146;2022-12-07T00:18:40;4.47;;;3.17;;
7511;SDS011;9999;48.780;9.146;2022-12-07T00:21:10;5.07;;;3.23;;
7511;SDS011;9999;48.780;9.146;2022-12-07T00:23:38;6.00;;;3.67;;
7511;SDS011;9999;48.780;9.146;2022-12-07T00:26:05;4.60;;;2.77;;
7511;SDS011;9999;48.780;9.146;2022-12-07T00:28:33;3.87;;;2.60;;
7511;SDS011;9999;48.780;9.146;2022-12-07T00:31:01;4.63;;;3.07;;
7511;SDS011;9999;48.780;9.146;2022-12-07T00:33:30;3.57;;;2.63;;
7511;SDS011;9999;48.780;9.146;2022-12-07T00:35:57;6.50;;;3.40;;
7511;SDS011;9999;48.780;9.146;2022-12-07T00:38:26;6.83;;;4.47;;
7511;SDS011;9999;48.780;9.146;2022-12-07T00:40:58;4.30;;;3.23;;
7511;SDS011;9999;48.780;9.146;2022-12-07T00:43:27;7.40;;;3.80;;
7511;SDS011;9999;48.780;9.146;2022-12-07T00:45:54;3.97;;;2.90;;
7511;SDS011;9999;48.780;9.146;2022-12-07T00:48:22;7.83;;;4.43;;
7511;SDS011;9999;48.780;9.146;2022-12-07T00:50:49;5.77;;;2.47;;
7511;SDS011;9999;48.780;9.146;2022-12-07T00:53:16;4.77;;;3.63;;
7511;SDS011;9999;48.780;9.146;2022-12-07T00:55:45;5.40;;;3.00;;
7511;SDS011;9999;48.780;9.146;2022-12-07T00:58:12;7.07;;;3.53;;
7511;SDS011;9999;48.780;9.146;2022-12-07T01:00:39;8.13;;;3.67;;
7511;SDS011;9999;48.780;9.146;2022-12-07T01:03:08;5.20;;;3.43;;
7511;SDS011;9999;48.780;9.146;2022-12-07T01:05:37;4.63;;;3.10;;
7511;SDS011;9999;48.780;9.146;2022-12-07T01:08:04;3.70;;;3.27;;
7511;SDS011;9999;48.780;9.146;2022-12-07T01:10:32;5.60;;;3.57;;
7511;SDS011;9999;48.780;9.146;2022-12-07T01:13:00;4.20;;;3.27;;
7511;SDS011;9999;48.780;9.146;2022-12-07T01:15:27;4.73;;;4.17;;
7511;SDS011;9999;48.780;9.146;2022-12-07T01:17:53;5.97;;;3.43;;
7511;SDS011;9999;48.780;9.146;2022-12-07T01:20:20;4.50;;;3.30;;
7511;SDS011;9999;48.780;9.146;2022-12-07T01:22:47;3.77;;;2.90;;
7511;SDS011;9999;48.780;9.146;2022-12-07T01:25:14;3.57;;;3.20;;
7511;SDS011;9999;48.780;9.146;2022-12-07T01:27:41;6.37;;;3.70;;
7511;SDS011;9999;48.780;9.146;2022-12-07T01:30:11;5.93;;;4.07;;
7511;SDS011;9999;48.780;9.146;2022-12-07T01:32:38;6.67;;;4.10;;
7511;SDS011;9999;48.780;9.146;2022-12-07T01:35:05;5.00;;;2.93;;
7511;SDS011;9999;48.780;9.146;2022-12-07T01:37:33;6.23;;;3.63;;
7511;SDS011;9999;48.780;9.146;2022-12-07T01:40:02;5.10;;;3.67;;
7511;SDS011;9999;48.780;9.146;2022-12-07T01:42:30;7.13;;;3.37;;
7511;SDS011;9999;48.780;9.146;2022-12-07T01:48:04;7.13;;;3.97;;
7511;SDS011;9999;48.780;9.146;2022-12-07T01:50:33;6.43;;;4.13;;
7511;SDS011;9999;48.780;9.146;2022-12-07T01:53:02;3.30;;;3.00;;
7511;SDS011;9999;48.780;9.146;2022-12-07T01:55:32;6.00;;;3.13;;
7511;SDS011;9999;48.780;9.146;2022-12-07T01:58:01;6.80;;;4.07;;
7511;SDS011;9999;48.780;9.146;2022-12-07T02:00:28;5.07;;;3.33;;
7511;SDS011;9999;48.780;9.146;2022-12-07T02:02:57;5.47;;;3.57;;
7511;SDS011;9999;48.780;9.146;2022-12-07T02:05:29;8.90;;;3.40;;
7511;SDS011;9999;48.780;9.146;2022-12-07T02:07:57;4.30;;;2.83;;
7511;SDS011;9999;48.780;9.146;2022-12-07T02:10:26;5.47;;;3.53;;
7511;SDS011;9999;48.780;9.146;2022-12-07T02:12:54;3.60;;;2.80;;
7511;SDS011;9999;48.780;9.146;2022-12-07T02:15:25;9.53;;;4.10;;
7511;SDS011;9999;48.780;9.146;2022-12-07T02:18:01;7.47;;;3.93;;
7511;SDS011;9999;48.780;9.146;2022-12-07T02:20:36;4.33;;;3.17;;
7511;SDS011;9999;48.780;9.146;2022-12-07T02:29:19;5.00;;;3.10;;
7511;SDS011;9999;48.780;9.146;2022-12-07T02:31:51;4.47;;;3.30;;
7511;SDS011;9999;48.780;9.146;2022-12-07T02:34:28;5.60;;;3.67;;
7511;SDS011;9999;48.780;9.146;2022-12-07T02:37:02;5.53;;;4.00;;
7511;SDS011;9999;48.780;9.146;2022-12-07T02:39:40;5.03;;;3.73;;
7511;SDS011;9999;48.780;9.146;2022-12-07T02:42:12;6.03;;;3.63;;
7511;SDS011;9999;48.780;9.146;2022-12-07T02:44:44;5.27;;;3.63;;
7511;SDS011;9999;48.780;9.146;2022-12-07T02:47:13;5.80;;;4.10;;
7511;SDS011;9999;48.780;9.146;2022-12-07T02:49:43;6.07;;;4.40;;
7511;SDS011;9999;48.780;9.146;2022-12-07T02:52:11;6.27;;;3.93;;
7511;SDS011;9999;48.780;9.146;2022-12-07T02:54:37;8.90;;;4.40;;
7511;SDS011;9999;48.780;9.146;2022-12-07T02:57:07;5.73;;;3.30;;
7511;SDS011;9999;48.780;9.146;2022-12-07T02:59:50;7.17;;;4.33;;
7511;SDS011;9999;48.780;9.146;2022-12-07T03:02:26;6.37;;;3.77;;
7511;SDS011;9999;48.780;9.146;2022-12-07T03:05:03;5.27;;;3.23;;
7511;SDS011;9999;48.780;9.146;2022-12-07T03:07:43;6.57;;;3.77;;
7511;SDS011;9999;48.780;9.146;2022-12-07T03:10:19;7.07;;;4.10;;
7511;SDS011;9999;48.780;9.146;2022-12-07T03:12:55;4.80;;;3.80;;
7511;SDS011;9999;48.780;9.146;2022-12-07T03:15:32;8.07;;;4.47;;
7511;SDS011;9999;48.780;9.146;2022-12-07T03:18:01;5.10;;;3.53;;
7511;SDS011;9999;48.780;9.146;2022-12-07T03:20:30;5.00;;;2.83;;
7511;SDS011;9999;48.780;9.146;2022-12-07T03:22:58;4.27;;;3.37;;
7511;SDS011;9999;48.780;9.146;2022-12-07T03:25:26;5.27;;;3.63;;
7511;SDS011;9999;48.780;9.146;2022-12-07T03:27:54;4.90;;;3.43;;
7511;SDS011;9999;48.780;9.146;2022-12-07T03:30:26;6.37;;;3.60;;
7511;SDS011;9999;48.780;9.146;2022-12-07T03:32:58;5.90;;;3.50;;
7511;SDS011;9999;48.780;9.146;2022-12-07T03:35:29;7.63;;;3.57;;
7511;SDS011;9999;48.780;9.146;2022-12-07T03:38:02;6.60;;;3.67;;
7511;SDS011;9999;48.780;9.146;2022-12-07T03:40:35;7.40;;;3.43;;
7511;SDS011;9999;48.780;9.146;2022-12-07T03:43:06;4.83;;;3.07;;
7511;SDS011;9999;48.780;9.146;2022-12-07T03:45:37;5.03;;;3.83;;
7511;SDS011;9999;48.780;9.146;2022-12-07T03:48:08;5.00;;;3.43;;
7511;SDS011;9999;48.780;9.146;2022-12-07T03:50:42;3.43;;;2.93;;
7511;SDS011;9999;48.780;9.146;2022-12-07T03:53:15;5.27;;;3.10;;
7511;SDS011;9999;48.780;9.146;2022-12-07T03:55:46;5.67;;;4.13;;
7511;SDS011;9999;48.780;9.146;2022-12-07T03:58:15;5.63;;;3.73;;
7511;SDS011;9999;48.780;9.146;2022-12-07T04:00:45;5.80;;;3.37;;
7511;SDS011;9999;48.780;9.146;2022-12-07T04:03:13;7.30;;;3.67;;
7511;SDS011;9999;48.780;9.146;2022-12-07T04:05:40;4.23;;;3.20;;
7511;SDS011;9999;48.780;9.146;2022-12-07T04:08:08;3.57;;;2.50;;
7511;SDS011;9999;48.780;9.146;2022-12-07T04:10:35;4.33;;;3.30;;
7511;SDS011;9999;48.780;9.146;2022-12-07T04:13:02;6.47;;;3.30;;
7511;SDS011;9999;48.780;9.146;2022-12-07T04:15:29;6.67;;;3.40;;
7511;SDS011;9999;48.780;9.146;2022-12-07T04:17:56;6.17;;;3.63;;
7511;SDS011;9999;48.780;9.146;2022-12-07T04:20:24;7.43;;;4.00;;
7511;SDS011;9999;48.780;9.146;2022-12-07T04:22:51;8.47;;;3.73;;
7511;SDS011;9999;48.780;9.146;2022-12-07T04:25:18;6.10;;;3.67;;
7511;SDS011;9999;48.780;9.146;2022-12-07T04:27:44;5.13;;;3.73;;
7511;SDS011;9999;48.780;9.146;2022-12-07T04:30:11;4.83;;;3.13;;
7511;SDS011;9999;48.780;9.146;2022-12-07T04:32:38;4.17;;;3.17;;
7511;SDS011;9999;48.780;9.146;2022-12-07T04:35:06;6.27;;;3.77;;
7511;SDS011;9999;48.780;9.146;2022-12-07T04:37:35;4.53;;;3.07;;
7511;SDS011;9999;48.780;9.146;2022-12-07T04:40:05;4.87;;;2.93;;
7511;SDS011;9999;48.780;9.146;2022-12-07T04:42:33;5.80;;;3.20;;
7511;SDS011;9999;48.780;9.146;2022-12-07T04:45:00;4.63;;;2.80;;
7511;SDS011;9999;48.780;9.146;2022-12-07T04:47:27;5.40;;;3.13;;
7511;SDS011;9999;48.780;9.146;2022-12-07T04:49:53;4.30;;;2.47;;
7511;SDS011;9999;48.780;9.146;2022-12-07T04:52:20;5.50;;;3.03;;
7511;SDS011;9999;48.780;9.146;2022-12-07T04:54:48;5.70;;;2.30;;
7511;SDS011;9999;48.780;9.146;2022-12-07T04:57:15;6.57;;;2.80;;
7511;SDS011;9999;48.780;9.146;2022-12-07T04:59:42;3.30;;;2.13;;
7511;SDS011;9999;48.780;9.146;2022-12-07T05:02:09;3.07;;;2.63;;
7511;SDS011;9999;48.780;9.146;2022-12-07T05:04:36;2.63;;;2.27;;
7511;SDS011;9999;48.780;9.146;2022-12-07T05:07:02;5.23;;;2.20;;
7511;SDS011;9999;48.780;9.146;2022-12-07T05:09:29;5.17;;;2.50;;
7511;SDS011;9999;48.780;9.146;2022-12-07T05:11:57;3.47;;;2.30;;
7511;SDS011;9999;48.780;9.146;2022-12-07T05:14:24;4.03;;;2.53;;
7511;SDS011;9999;48.780;9.146;2022-12-07T05:16:51;4.47;;;2.70;;
7511;SDS011;9999;48.780;9.146;2022-12-07T05:19:18;2.73;;;2.43;;
7511;SDS011;9999;48.780;9.146;2022-12-07T05:21:45;5.73;;;2.67;;
7511;SDS011;9999;48.780;9.146;2022-12-07T05:24:13;3.93;;;2.97;;
7511;SDS011;9999;48.780;9.146;2022-12-07T05:26:41;2.17;;;1.97;;
7511;SDS011;9999;48.780;9.146;2022-12-07T05:29:11;1.93;;;1.77;;
7511;SDS011;9999;48.780;9.146;2022-12-07T05:31:38;4.13;;;2.40;;
7511;SDS011;9999;48.780;9.146;2022-12-07T05:34:05;2.70;;;2.47;;
7511;SDS011;9999;48.780;9.146;2022-12-07T05:36:32;3.73;;;2.37;;
7511;SDS011;9999;48.780;9.146;2022-12-07T05:38:59;5.70;;;2.87;;
7511;SDS011;9999;48.780;9.146;2022-12-07T05:41:26;7.93;;;3.17;;
7511;SDS011;9999;48.780;9.146;2022-12-07T05:44:11;4.70;;;3.00;;
7511;SDS011;9999;48.780;9.146;2022-12-07T05:46:38;4.93;;;2.83;;
7511;SDS011;9999;48.780;9.146;2022-12-07T05:49:05;2.33;;;2.13;;
7511;SDS011;9999;48.780;9.146;2022-12-07T05:51:32;3.03;;;2.57;;
7511;SDS011;9999;48.780;9.146;2022-12-07T05:53:59;5.20;;;2.63;;
7511;SDS011;9999;48.780;9.146;2022-12-07T05:56:25;3.67;;;2.80;;
7511;SDS011;9999;48.780;9.146;2022-12-07T05:58:52;4.53;;;2.63;;
7511;SDS011;9999;48.780;9.146;2022-12-07T06:01:38;5.77;;;2.87;;
7511;SDS011;9999;48.780;9.146;2022-12-07T06:04:05;5.23;;;3.20;;
7511;SDS011;9999;48.780;9.146;2022-12-07T06:06:32;6.07;;;2.70;;
7511;SDS011;9999;48.780;9.146;2022-12-07T06:08:59;3.97;;;2.80;;
7511;SDS011;9999;48.780;9.146;2022-12-07T06:11:26;5.37;;;2.47;;
7511;SDS011;9999;48.780;9.146;2022-12-07T06:14:10;2.53;;;2.13;;
7511;SDS011;9999;48.780;9.146;2022-12-07T06:16:38;4.27;;;2.63;;
7511;SDS011;9999;48.780;9.146;2022-12-07T06:19:05;2.87;;;1.67;;
7511;SDS011;9999;48.780;9.146;2022-12-07T06:21:32;5.83;;;3.10;;
7511;SDS011;9999;48.780;9.146;2022-12-07T06:23:58;3.23;;;2.57;;
7511;SDS011;9999;48.780;9.146;2022-12-07T06:26:25;5.20;;;3.60;;
7511;SDS011;9999;48.780;9.146;2022-12-07T06:28:52;5.97;;;2.57;;
7511;SDS011;9999;48.780;9.146;2022-12-07T06:31:19;3.53;;;2.00;;
7511;SDS011;9999;48.780;9.146;2022-12-07T06:33:47;4.57;;;2.70;;
7511;SDS011;9999;48.780;9.146;2022-12-07T06:36:14;3.93;;;2.80;;
7511;SDS011;9999;48.780;9.146;2022-12-07T06:38:41;4.03;;;2.63;;
7511;SDS011;9999;48.780;9.146;2022-12-07T06:41:07;4.87;;;3.50;;
7511;SDS011;9999;48.780;9.146;2022-12-07T06:43:34;3.60;;;2.63;;
7511;SDS011;9999;48.780;9.146;2022-12-07T06:46:01;4.63;;;2.83;;
7511;SDS011;9999;48.780;9.146;2022-12-07T06:48:28;6.03;;;3.30;;
7511;SDS011;9999;48.780;9.146;2022-12-07T06:50:56;2.97;;;2.50;;
7511;SDS011;9999;48.780;9.146;2022-12-07T06:53:23;4.53;;;2.50;;
7511;SDS011;9999;48.780;9.146;2022-12-07T06:55:49;4.97;;;2.83;;
7511;SDS011;9999;48.780;9.146;2022-12-07T06:58:17;3.40;;;2.00;;
7511;SDS011;9999;48.780;9.146;2022-12-07T07:00:44;3.83;;;2.27;;
7511;SDS011;9999;48.780;9.146;2022-12-07T07:03:11;2.73;;;2.13;;
7511;SDS011;9999;48.780;9.146;2022-12-07T07:05:38;3.07;;;2.30;;
7511;SDS011;9999;48.780;9.146;2022-12-07T07:08:06;2.27;;;1.63;;
7511;SDS011;9999;48.780;9.146;2022-12-07T07:10:33;3.10;;;2.10;;
7511;SDS011;9999;48.780;9.146;2022-12-07T07:13:00;2.03;;;1.80;;
7511;SDS011;9999;48.780;9.146;2022-12-07T07:15:27;1.67;;;1.57;;
7511;SDS011;9999;48.780;9.146;2022-12-07T07:17:53;2.67;;;1.63;;
7511;SDS011;9999;48.780;9.146;2022-12-07T07:20:20;3.30;;;2.47;;
7511;SDS011;9999;48.780;9.146;2022-12-07T07:22:48;2.07;;;1.77;;
7511;SDS011;9999;48.780;9.146;2022-12-07T07:25:17;2.83;;;2.63;;
7511;SDS011;9999;48.780;9.146;2022-12-07T07:27:44;2.93;;;2.63;;
7511;SDS011;9999;48.780;9.146;2022-12-07T07:30:10;4.10;;;2.47;;
7511;SDS011;9999;48.780;9.146;2022-12-07T07:32:38;2.43;;;2.00;;
7511;SDS011;9999;48.780;9.146;2022-12-07T07:35:05;2.83;;;1.90;;
7511;SDS011;9999;48.780;9.146;2022-12-07T07:37:32;5.20;;;2.80;;
7511;SDS011;9999;48.780;9.146;2022-12-07T07:39:59;5.37;;;2.20;;
7511;SDS011;9999;48.780;9.146;2022-12-07T07:42:27;2.53;;;1.83;;
7511;SDS011;9999;48.780;9.146;2022-12-07T07:44:54;2.03;;;1.83;;
7511;SDS011;9999;48.780;9.146;2022-12-07T07:47:20;3.53;;;2.33;;
7511;SDS011;9999;48.780;9.146;2022-12-07T07:49:47;2.43;;;2.00;;
7511;SDS011;9999;48.780;9.146;2022-12-07T07:52:14;2.97;;;2.50;;
7511;SDS011;9999;48.780;9.146;2022-12-07T07:54:41;3.37;;;2.40;;
7511;SDS011;9999;48.780;9.146;2022-12-07T07:57:08;3.90;;;2.40;;
7511;SDS011;9999;48.780;9.146;2022-12-07T07:59:36;4.37;;;1.77;;
7511;SDS011;9999;48.780;9.146;2022-12-07T08:02:03;2.73;;;1.90;;
7511;SDS011;9999;48.780;9.146;2022-12-07T08:04:29;3.27;;;2.30;;
7511;SDS011;9999;48.780;9.146;2022-12-07T08:06:56;3.70;;;2.30;;
7511;SDS011;9999;48.780;9.146;2022-12-07T08:09:23;3.40;;;2.40;;
7511;SDS011;9999;48.780;9.146;2022-12-07T08:11:50;4.00;;;2.70;;
7511;SDS011;9999;48.780;9.146;2022-12-07T08:14:16;3.47;;;1.50;;
7511;SDS011;9999;48.780;9.146;2022-12-07T08:16:45;3.13;;;2.03;;
7511;SDS011;9999;48.780;9.146;2022-12-07T08:19:11;3.60;;;2.53;;
7511;SDS011;9999;48.780;9.146;2022-12-07T08:21:38;5.13;;;3.17;;
7511;SDS011;9999;48.780;9.146;2022-12-07T08:24:05;3.20;;;2.10;;
7511;SDS011;9999;48.780;9.146;2022-12-07T08:26:32;2.80;;;2.10;;
7511;SDS011;9999;48.780;9.146;2022-12-07T08:28:59;4.60;;;2.33;;
7511;SDS011;9999;48.780;9.146;2022-12-07T08:31:26;3.70;;;2.50;;
7511;SDS011;9999;48.780;9.146;2022-12-07T08:33:55;3.93;;;2.63;;
7511;SDS011;9999;48.780;9.146;2022-12-07T08:36:22;2.23;;;1.70;;
7511;SDS011;9999;48.780;9.146;2022-12-07T08:38:49;2.53;;;2.33;;
7511;SDS011;9999;48.780;9.146;2022-12-07T08:41:16;3.10;;;2.80;;
7511;SDS011;9999;48.780;9.146;2022-12-07T08:43:43;1.60;;;1.50;;
7511;SDS011;9999;48.780;9.146;2022-12-07T08:46:11;2.03;;;1.63;;
7511;SDS011;9999;48.780;9.146;2022-12-07T08:48:46;2.70;;;1.80;;
7511;SDS011;9999;48.780;9.146;2022-12-07T08:51:20;2.03;;;1.50;;
7511;SDS011;9999;48.780;9.146;2022-12-07T08:53:48;2.37;;;2.03;;
7511;SDS011;9999;48.780;9.146;2022-12-07T08:56:15;1.97;;;1.77;;
7511;SDS011;9999;48.780;9.146;2022-12-07T08:58:42;2.67;;;2.03;;
7511;SDS011;9999;48.780;9.146;2022-12-07T09:01:10;2.33;;;1.97;;
7511;SDS011;9999;48.780;9.146;2022-12-07T09:03:37;2.33;;;2.13;;
7511;SDS011;9999;48.780;9.146;2022-12-07T09:06:04;3.13;;;2.17;;
7511;SDS011;9999;48.780;9.146;2022-12-07T09:08:33;2.23;;;1.63;;
7511;SDS011;9999;48.780;9.146;2022-12-07T09:11:05;2.40;;;2.20;;
7511;SDS011;9999;48.780;9.146;2022-12-07T09:13:32;3.50;;;1.77;;
7511;SDS011;9999;48.780;9.146;2022-12-07T09:15:59;2.67;;;2.23;;
7511;SDS011;9999;48.780;9.146;2022-12-07T09:18:26;6.80;;;2.33;;
7511;SDS011;9999;48.780;9.146;2022-12-07T09:20:52;3.33;;;2.13;;
7511;SDS011;9999;48.780;9.146;2022-12-07T09:23:19;3.30;;;2.17;;
7511;SDS011;9999;48.780;9.146;2022-12-07T09:25:47;4.37;;;2.20;;
7511;SDS011;9999;48.780;9.146;2022-12-07T09:28:14;4.97;;;2.97;;
7511;SDS011;9999;48.780;9.146;2022-12-07T09:30:44;2.97;;;2.17;;
7511;SDS011;9999;48.780;9.146;2022-12-07T09:33:11;4.80;;;2.17;;
7511;SDS011;9999;48.780;9.146;2022-12-07T09:35:43;3.60;;;2.03;;
7511;SDS011;9999;48.780;9.146;2022-12-07T09:38:10;2.33;;;1.73;;
7511;SDS011;9999;48.780;9.146;2022-12-07T09:40:37;6.03;;;2.23;;
7511;SDS011;9999;48.780;9.146;2022-12-07T09:43:10;7.00;;;2.43;;
7511;SDS011;9999;48.780;9.146;2022-12-07T09:45:39;9.57;;;1.90;;
7511;SDS011;9999;48.780;9.146;2022-12-07T09:48:08;3.10;;;1.83;;
7511;SDS011;9999;48.780;9.146;2022-12-07T09:50:43;2.53;;;1.87;;
7511;SDS011;9999;48.780;9.146;2022-12-07T09:53:13;4.60;;;1.90;;
7511;SDS011;9999;48.780;9.146;2022-12-07T09:55:42;2.57;;;1.70;;
7511;SDS011;9999;48.780;9.146;2022-12-07T09:58:12;2.00;;;1.90;;
7511;SDS011;9999;48.780;9.146;2022-12-07T10:00:43;2.30;;;2.10;;
7511;SDS011;9999;48.780;9.146;2022-12-07T10:03:11;3.13;;;1.77;;
7511;SDS011;9999;48.780;9.146;2022-12-07T10:05:38;2.33;;;2.13;;
7511;SDS011;9999;48.780;9.146;2022-12-07T10:08:09;2.33;;;1.60;;
7511;SDS011;9999;48.780;9.146;2022-12-07T10:10:37;1.93;;;1.30;;
7511;SDS011;9999;48.780;9.146;2022-12-07T10:13:05;1.90;;;1.13;;
7511;SDS011;9999;48.780;9.146;2022-12-07T10:18:21;1.93;;;1.60;;
7511;SDS011;9999;48.780;9.146;2022-12-07T10:21:00;2.33;;;1.63;;
7511;SDS011;9999;48.780;9.146;2022-12-07T10:23:29;2.20;;;2.03;;
7511;SDS011;9999;48.780;9.146;2022-12-07T10:25:55;1.93;;;1.43;;
7511;SDS011;9999;48.780;9.146;2022-12-07T10:28:22;2.73;;;2.00;;
7511;SDS011;9999;48.780;9.146;2022-12-07T10:30:51;1.97;;;1.50;;
7511;SDS011;9999;48.780;9.146;2022-12-07T10:33:28;1.63;;;1.53;;
7511;SDS011;9999;48.780;9.146;2022-12-07T10:35:56;2.47;;;1.90;;
7511;SDS011;9999;48.780;9.146;2022-12-07T10:38:23;4.13;;;1.70;;
7511;SDS011;9999;48.780;9.146;2022-12-07T10:41:02;3.37;;;1.80;;
7511;SDS011;9999;48.780;9.146;2022-12-07T10:43:30;5.33;;;2.40;;
7511;SDS011;9999;48.780;9.146;2022-12-07T10:46:13;3.63;;;2.13;;
7511;SDS011;9999;48.780;9.146;2022-12-07T10:48:52;1.30;;;1.20;;
7511;SDS011;9999;48.780;9.146;2022-12-07T10:51:30;3.70;;;1.63;;
7511;SDS011;9999;48.780;9.146;2022-12-07T10:54:04;2.60;;;1.90;;
7511;SDS011;9999;48.780;9.146;2022-12-07T10:56:43;2.60;;;1.60;;
7511;SDS011;9999;48.780;9.146;2022-12-07T10:59:37;2.53;;;1.57;;
7511;SDS011;9999;48.780;9.146;2022-12-07T11:05:26;1.30;;;1.20;;
7511;SDS011;9999;48.780;9.146;2022-12-07T11:08:00;2.63;;;1.57;;
7511;SDS011;9999;48.780;9.146;2022-12-07T11:10:34;2.47;;;1.77;;
7511;SDS011;9999;48.780;9.146;2022-12-07T11:13:22;2.00;;;1.90;;
7511;SDS011;9999;48.780;9.146;2022-12-07T11:18:50;1.97;;;1.33;;
7511;SDS011;9999;48.780;9.146;2022-12-07T11:21:37;1.87;;;1.77;;
7511;SDS011;9999;48.780;9.146;2022-12-07T11:24:13;1.67;;;1.57;;
7511;SDS011;9999;48.780;9.146;2022-12-07T11:26:47;2.60;;;1.33;;
7511;SDS011;9999;48.780;9.146;2022-12-07T11:29:37;1.63;;;1.40;;
7511;SDS011;9999;48.780;9.146;2022-12-07T11:32:33;1.43;;;1.23;;
7511;SDS011;9999;48.780;9.146;2022-12-07T11:35:15;2.63;;;1.80;;
7511;SDS011;9999;48.780;9.146;2022-12-07T11:37:49;1.57;;;1.40;;
7511;SDS011;9999;48.780;9.146;2022-12-07T11:40:24;1.53;;;1.23;;
7511;SDS011;9999;48.780;9.146;2022-12-07T11:42:55;1.43;;;1.33;;
7511;SDS011;9999;48.780;9.146;2022-12-07T11:45:26;1.50;;;1.07;;
7511;SDS011;9999;48.780;9.146;2022-12-07T11:47:55;1.17;;;0.93;;
7511;SDS011;9999;48.780;9.146;2022-12-07T11:50:30;3.67;;;1.47;;
7511;SDS011;9999;48.780;9.146;2022-12-07T11:53:01;1.90;;;1.37;;
7511;SDS011;9999;48.780;9.146;2022-12-07T11:55:37;2.47;;;1.20;;
7511;SDS011;9999;48.780;9.146;2022-12-07T11:58:12;1.27;;;1.17;;
7511;SDS011;9999;48.780;9.146;2022-12-07T12:00:48;1.60;;;1.50;;
7511;SDS011;9999;48.780;9.146;2022-12-07T12:03:20;1.70;;;1.50;;
7511;SDS011;9999;48.780;9.146;2022-12-07T12:05:56;2.03;;;1.60;;
7511;SDS011;9999;48.780;9.146;2022-12-07T12:08:24;2.10;;;1.90;;
7511;SDS011;9999;48.780;9.146;2022-12-07T12:10:58;3.20;;;1.70;;
7511;SDS011;9999;48.780;9.146;2022-12-07T12:16:39;3.23;;;2.33;;
7511;SDS011;9999;48.780;9.146;2022-12-07T12:19:25;6.17;;;2.07;;
7511;SDS011;9999;48.780;9.146;2022-12-07T12:22:03;2.77;;;1.83;;
7511;SDS011;9999;48.780;9.146;2022-12-07T12:24:36;2.53;;;2.17;;
7511;SDS011;9999;48.780;9.146;2022-12-07T12:27:07;5.93;;;2.70;;
7511;SDS011;9999;48.780;9.146;2022-12-07T12:29:36;2.37;;;1.93;;
7511;SDS011;9999;48.780;9.146;2022-12-07T12:32:06;3.33;;;1.83;;
7511;SDS011;9999;48.780;9.146;2022-12-07T12:34:39;2.97;;;2.60;;
7511;SDS011;9999;48.780;9.146;2022-12-07T12:37:19;3.37;;;2.33;;
7511;SDS011;9999;48.780;9.146;2022-12-07T12:52:01;2.77;;;2.03;;
7511;SDS011;9999;48.780;9.146;2022-12-07T12:55:12;2.70;;;2.20;;
7511;SDS011;9999;48.780;9.146;2022-12-07T12:57:44;6.23;;;2.20;;
7511;SDS011;9999;48.780;9.146;2022-12-07T13:02:47;3.23;;;2.33;;
7511;SDS011;9999;48.780;9.146;2022-12-07T13:05:16;5.43;;;3.30;;
7511;SDS011;9999;48.780;9.146;2022-12-07T13:07:56;4.60;;;3.23;;
7511;SDS011;9999;48.780;9.146;2022-12-07T13:10:34;3.50;;;2.73;;
7511;SDS011;9999;48.780;9.146;2022-12-07T13:13:08;2.40;;;1.70;;
7511;SDS011;9999;48.780;9.146;2022-12-07T13:15:56;2.63;;;2.30;;
7511;SDS011;9999;48.780;9.146;2022-12-07T13:25:04;2.07;;;1.87;;
7511;SDS011;9999;48.780;9.146;2022-12-07T13:27:36;2.10;;;1.83;;
7511;SDS011;9999;48.780;9.146;2022-12-07T13:30:09;2.57;;;1.90;;
7511;SDS011;9999;48.780;9.146;2022-12-07T13:32:40;4.03;;;2.57;;
7511;SDS011;9999;48.780;9.146;2022-12-07T13:37:56;3.33;;;2.07;;
7511;SDS011;9999;48.780;9.146;2022-12-07T13:40:23;2.13;;;1.93;;
7511;SDS011;9999;48.780;9.146;2022-12-07T13:42:57;1.57;;;1.47;;
7511;SDS011;9999;48.780;9.146;2022-12-07T13:45:27;2.70;;;1.90;;
7511;SDS011;9999;48.780;9.146;2022-12-07T13:48:08;2.40;;;1.50;;
7511;SDS011;9999;48.780;9.146;2022-12-07T13:50:41;2.13;;;1.93;;
7511;SDS011;9999;48.780;9.146;2022-12-07T13:53:11;1.83;;;1.73;;
7511;SDS011;9999;48.780;9.146;2022-12-07T13:55:43;2.73;;;2.07;;
7511;SDS011;9999;48.780;9.146;2022-12-07T13:58:12;4.27;;;1.67;;
7511;SDS011;9999;48.780;9.146;2022-12-07T14:00:40;1.80;;;1.70;;
7511;SDS011;9999;48.780;9.146;2022-12-07T14:03:26;2.90;;;2.70;;
7511;SDS011;9999;48.780;9.146;2022-12-07T14:09:07;1.83;;;1.63;;
7511;SDS011;9999;48.780;9.146;2022-12-07T14:11:35;2.67;;;1.83;;
7511;SDS011;9999;48.780;9.146;2022-12-07T14:14:03;2.90;;;1.97;;
7511;SDS011;9999;48.780;9.146;2022-12-07T14:16:32;2.73;;;2.13;;
7511;SDS011;9999;48.780;9.146;2022-12-07T14:19:01;2.77;;;2.47;;
7511;SDS011;9999;48.780;9.146;2022-12-07T14:21:30;2.57;;;2.07;;
7511;SDS011;9999;48.780;9.146;2022-12-07T14:24:02;1.93;;;1.80;;
7511;SDS011;9999;48.780;9.146;2022-12-07T14:26:50;2.43;;;1.67;;
7511;SDS011;9999;48.780;9.146;2022-12-07T14:29:29;3.13;;;1.80;;
7511;SDS011;9999;48.780;9.146;2022-12-07T14:31:58;2.77;;;1.83;;
7511;SDS011;9999;48.780;9.146;2022-12-07T14:34:36;2.23;;;1.90;;
7511;SDS011;9999;48.780;9.146;2022-12-07T14:37:03;4.53;;;2.23;;
7511;SDS011;9999;48.780;9.146;2022-12-07T14:39:33;3.10;;;2.30;;
7511;SDS011;9999;48.780;9.146;2022-12-07T14:42:00;2.67;;;2.10;;
7511;SDS011;9999;48.780;9.146;2022-12-07T14:44:28;2.23;;;2.10;;
7511;SDS011;9999;48.780;9.146;2022-12-07T14:46:55;2.17;;;1.97;;
7511;SDS011;9999;48.780;9.146;2022-12-07T14:49:22;2.27;;;1.97;;
7511;SDS011;9999;48.780;9.146;2022-12-07T14:51:48;2.97;;;1.53;;
7511;SDS011;9999;48.780;9.146;2022-12-07T14:54:17;4.13;;;2.17;;
7511;SDS011;9999;48.780;9.146;2022-12-07T14:56:46;2.67;;;2.13;;
7511;SDS011;9999;48.780;9.146;2022-12-07T14:59:15;2.80;;;2.30;;
7511;SDS011;9999;48.780;9.146;2022-12-07T15:01:43;4.37;;;2.67;;
7511;SDS011;9999;48.780;9.146;2022-12-07T15:04:10;4.83;;;3.17;;
7511;SDS011;9999;48.780;9.146;2022-12-07T15:06:37;3.53;;;2.37;;
7511;SDS011;9999;48.780;9.146;2022-12-07T15:09:04;3.70;;;2.60;;
7511;SDS011;9999;48.780;9.146;2022-12-07T15:11:31;2.50;;;1.90;;
7511;SDS011;9999;48.780;9.146;2022-12-07T15:13:58;5.23;;;2.47;;
7511;SDS011;9999;48.780;9.146;2022-12-07T15:16:36;3.57;;;2.70;;
7511;SDS011;9999;48.780;9.146;2022-12-07T15:19:06;1.70;;;1.60;;
7511;SDS011;9999;48.780;9.146;2022-12-07T15:21:36;2.80;;;2.17;;
7511;SDS011;9999;48.780;9.146;2022-12-07T15:24:03;4.30;;;2.37;;
7511;SDS011;9999;48.780;9.146;2022-12-07T15:26:30;3.90;;;2.30;;
7511;SDS011;9999;48.780;9.146;2022-12-07T15:28:57;5.10;;;1.60;;
7511;SDS011;9999;48.780;9.146;2022-12-07T15:31:24;3.33;;;1.97;;
7511;SDS011;9999;48.780;9.146;2022-12-07T15:33:51;1.63;;;1.53;;
7511;SDS011;9999;48.780;9.146;2022-12-07T15:36:19;2.00;;;1.77;;
7511;SDS011;9999;48.780;9.146;2022-12-07T15:38:48;1.73;;;1.30;;
7511;SDS011;9999;48.780;9.146;2022-12-07T15:41:15;2.43;;;1.83;;
7511;SDS011;9999;48.780;9.146;2022-12-07T15:43:43;3.47;;;2.50;;
7511;SDS011;9999;48.780;9.146;2022-12-07T15:46:29;4.77;;;2.73;;
7511;SDS011;9999;48.780;9.146;2022-12-07T15:48:56;6.50;;;2.10;;
7511;SDS011;9999;48.780;9.146;2022-12-07T15:51:25;2.43;;;1.97;;
7511;SDS011;9999;48.780;9.146;2022-12-07T15:53:52;2.03;;;1.70;;
7511;SDS011;9999;48.780;9.146;2022-12-07T15:56:20;3.47;;;2.73;;
7511;SDS011;9999;48.780;9.146;2022-12-07T15:58:47;3.67;;;2.30;;
7511;SDS011;9999;48.780;9.146;2022-12-07T16:01:15;3.53;;;2.43;;
7511;SDS011;9999;48.780;9.146;2022-12-07T16:03:44;4.43;;;2.50;;
7511;SDS011;9999;48.780;9.146;2022-12-07T16:06:11;4.63;;;2.80;;
7511;SDS011;9999;48.780;9.146;2022-12-07T16:08:43;3.97;;;2.67;;
7511;SDS011;9999;48.780;9.146;2022-12-07T16:11:10;4.70;;;3.40;;
7511;SDS011;9999;48.780;9.146;2022-12-07T16:13:37;5.07;;;3.20;;
7511;SDS011;9999;48.780;9.146;2022-12-07T16:16:04;5.20;;;3.10;;
7511;SDS011;9999;48.780;9.146;2022-12-07T16:18:32;4.33;;;2.87;;
7511;SDS011;9999;48.780;9.146;2022-12-07T16:20:59;3.80;;;2.43;;